Time;durP1;ratioP1;P1;durP2;ratioP2;P2;SDS_P1;SDS_P2;PMS_P1;PMS_P2;Temp;Humidity;BMP_temperature;BMP_pressure;BME280_temperature;BME280_humidity;BME280_pressure;Samples;Min_cycle;Max_cycle;Signal;HPM_P1;HPM_P2
2023/08/07 00:00:05;;;;;;;2.40;1.97;;;28.30;50.90;;;;;;4996628;28;20441;-80
2023/08/07 00:02:42;;;;;;;2.90;2.00;;;28.30;50.80;;;;;;4997198;28;20472;-80
2023/08/07 00:05:14;;;;;;;2.93;2.10;;;28.20;50.80;;;;;;4988710;28;20434;-80
2023/08/07 00:07:50;;;;;;;2.30;2.10;;;28.20;50.90;;;;;;4994987;28;20453;-80
2023/08/07 00:10:26;;;;;;;2.30;1.90;;;28.20;50.90;;;;;;4991719;28;20454;-80
2023/08/07 00:13:16;;;;;;;2.00;1.83;;;28.20;51.00;;;;;;4997641;28;20484;-79
2023/08/07 00:15:49;;;;;;;2.70;1.90;;;28.20;51.10;;;;;;4996167;28;20461;-80
2023/08/07 00:18:22;;;;;;;2.10;2.00;;;28.20;51.10;;;;;;4994718;28;20472;-80
2023/08/07 00:20:56;;;;;;;2.43;2.10;;;28.20;51.20;;;;;;4996610;28;20423;-80
2023/08/07 00:23:32;;;;;;;2.17;2.07;;;28.20;51.10;;;;;;4997615;28;20473;-79
2023/08/07 00:26:01;;;;;;;2.10;2.00;;;28.20;51.20;;;;;;4998215;28;20553;-79
2023/08/07 00:28:41;;;;;;;2.63;1.90;;;28.10;51.20;;;;;;4999507;28;20449;-78
2023/08/07 00:31:17;;;;;;;2.20;2.10;;;28.10;51.30;;;;;;4987178;28;20929;-80
2023/08/07 00:33:47;;;;;;;2.00;1.90;;;28.10;51.30;;;;;;4996351;28;20456;-80
2023/08/07 00:36:28;;;;;;;1.80;1.70;;;28.10;51.40;;;;;;4989162;28;20445;-80
2023/08/07 00:39:05;;;;;;;1.87;1.77;;;28.00;51.50;;;;;;4995549;28;20453;-80
2023/08/07 00:41:37;;;;;;;2.17;1.93;;;28.00;51.40;;;;;;4995283;28;20476;-80
2023/08/07 00:44:06;;;;;;;2.10;1.87;;;28.00;51.30;;;;;;4983460;28;20489;-79
2023/08/07 00:46:43;;;;;;;2.00;1.90;;;28.00;51.50;;;;;;4995527;28;20594;-80
2023/08/07 00:49:15;;;;;;;2.20;2.10;;;28.00;51.50;;;;;;4995219;28;20453;-80
2023/08/07 00:51:44;;;;;;;2.07;1.97;;;28.00;51.60;;;;;;4995579;28;20495;-80
2023/08/07 00:54:19;;;;;;;1.60;1.60;;;28.00;51.40;;;;;;4988460;28;20457;-80
2023/08/07 00:56:54;;;;;;;2.10;1.90;;;28.00;51.50;;;;;;4995792;28;20492;-80
2023/08/07 00:59:28;;;;;;;2.57;2.10;;;28.00;51.50;;;;;;4994288;28;20472;-80
2023/08/07 01:02:06;;;;;;;2.70;2.10;;;28.00;51.60;;;;;;4995184;28;20446;-80
2023/08/07 01:04:38;;;;;;;2.10;2.00;;;28.00;51.60;;;;;;4995223;28;20449;-80
2023/08/07 01:07:09;;;;;;;2.60;2.10;;;28.00;51.60;;;;;;4995091;28;20472;-80
2023/08/07 01:09:39;;;;;;;1.93;1.83;;;27.90;51.60;;;;;;4994446;28;20529;-80
2023/08/07 01:12:17;;;;;;;1.90;1.80;;;28.00;51.70;;;;;;4994199;28;20480;-80
2023/08/07 01:14:54;;;;;;;3.13;1.83;;;28.00;51.80;;;;;;4994928;28;20580;-80
2023/08/07 01:17:33;;;;;;;1.97;1.87;;;28.00;51.80;;;;;;4995018;28;20540;-79
2023/08/07 01:20:17;;;;;;;2.10;2.00;;;27.90;51.80;;;;;;4978202;28;20438;-80
2023/08/07 01:22:53;;;;;;;2.90;1.97;;;27.90;51.70;;;;;;4996643;28;20469;-80
2023/08/07 01:25:28;;;;;;;2.20;1.70;;;27.90;51.70;;;;;;4997837;28;20521;-79
2023/08/07 01:28:03;;;;;;;2.17;2.07;;;27.90;51.90;;;;;;4995339;28;20446;-80
2023/08/07 01:30:34;;;;;;;2.00;1.83;;;27.90;51.80;;;;;;4993158;28;20488;-79
2023/08/07 01:33:11;;;;;;;1.90;1.80;;;27.90;51.90;;;;;;4993203;28;20476;-80
2023/08/07 01:35:42;;;;;;;2.33;2.20;;;27.90;51.90;;;;;;4990298;28;20540;-80
2023/08/07 01:38:15;;;;;;;2.13;2.00;;;27.90;51.90;;;;;;4994058;28;20489;-79
2023/08/07 01:40:48;;;;;;;2.00;1.90;;;27.90;51.90;;;;;;4995239;28;20416;-80
2023/08/07 01:43:25;;;;;;;2.00;1.90;;;27.90;51.90;;;;;;4987903;28;20472;-79
2023/08/07 01:46:06;;;;;;;1.90;1.80;;;27.80;52.00;;;;;;4995001;28;20507;-80
2023/08/07 01:48:37;;;;;;;1.73;1.63;;;27.90;52.00;;;;;;4996018;28;20446;-80
2023/08/07 01:51:14;;;;;;;2.07;1.97;;;27.80;52.00;;;;;;4998449;28;20538;-80
2023/08/07 01:54:09;;;;;;;1.80;1.70;;;27.80;52.10;;;;;;4997468;28;20458;-80
2023/08/07 01:56:49;;;;;;;1.90;1.80;;;27.80;52.10;;;;;;4998923;28;20432;-80
2023/08/07 01:59:26;;;;;;;1.80;1.70;;;27.80;52.20;;;;;;4998179;28;20449;-80
2023/08/07 02:02:00;;;;;;;1.80;1.70;;;27.80;52.10;;;;;;4997732;28;20461;-80
2023/08/07 02:04:31;;;;;;;1.90;1.80;;;27.80;52.20;;;;;;4998252;28;20580;-79
2023/08/07 02:07:12;;;;;;;2.00;1.90;;;27.70;52.10;;;;;;4997942;28;20452;-80
2023/08/07 02:09:59;;;;;;;1.87;1.77;;;27.70;52.20;;;;;;4998451;28;20420;-80
2023/08/07 02:12:29;;;;;;;1.90;1.80;;;27.80;52.40;;;;;;4996077;28;20531;-80
2023/08/07 02:15:02;;;;;;;1.90;1.80;;;27.70;52.10;;;;;;4998662;28;20444;-80
2023/08/07 02:17:41;;;;;;;1.90;1.80;;;27.70;52.40;;;;;;4998010;28;20431;-80
2023/08/07 02:20:24;;;;;;;1.93;1.70;;;27.70;52.40;;;;;;4998479;28;20468;-80
2023/08/07 02:23:04;;;;;;;1.67;1.57;;;27.70;52.40;;;;;;4998473;28;20432;-80
2023/08/07 02:25:40;;;;;;;1.80;1.70;;;27.70;52.30;;;;;;4999173;28;20463;-80
2023/08/07 02:28:17;;;;;;;1.87;1.77;;;27.70;52.40;;;;;;4994344;28;20454;-80
2023/08/07 02:30:48;;;;;;;1.63;1.63;;;27.70;52.40;;;;;;4993577;28;20526;-80
2023/08/07 02:33:20;;;;;;;1.43;1.43;;;27.70;52.60;;;;;;4998844;28;20452;-80
2023/08/07 02:35:50;;;;;;;2.03;1.93;;;27.70;52.40;;;;;;4998881;28;20449;-80
2023/08/07 02:38:26;;;;;;;1.50;1.50;;;27.70;52.60;;;;;;5003659;28;20445;-79
2023/08/07 02:41:03;;;;;;;1.87;1.77;;;27.70;52.70;;;;;;4998841;28;20447;-80
2023/08/07 02:43:39;;;;;;;1.60;1.60;;;27.70;52.60;;;;;;4996935;28;20456;-77
2023/08/07 02:49:55;;;;;;;2.13;2.03;;;27.70;52.60;;;;;;4989641;28;20434;-79
2023/08/07 02:52:31;;;;;;;1.50;1.40;;;27.60;52.60;;;;;;4996013;28;20459;-79
2023/08/07 02:55:04;;;;;;;1.50;1.50;;;27.60;52.80;;;;;;4996757;28;20450;-80
2023/08/07 02:57:46;;;;;;;1.97;1.87;;;27.60;52.70;;;;;;4989385;28;20497;-80
2023/08/07 03:00:25;;;;;;;1.83;1.73;;;27.60;52.60;;;;;;4996583;28;20424;-80
2023/08/07 03:02:58;;;;;;;1.67;1.67;;;27.60;52.70;;;;;;4988919;28;20491;-80
2023/08/07 03:05:32;;;;;;;1.90;1.80;;;27.60;52.80;;;;;;4990321;28;20449;-80
2023/08/07 03:08:06;;;;;;;1.80;1.70;;;27.60;52.90;;;;;;4997491;28;20419;-80
2023/08/07 03:10:39;;;;;;;1.57;1.57;;;27.50;52.90;;;;;;4990738;28;20900;-80
2023/08/07 03:16:09;;;;;;;1.70;1.60;;;27.50;52.80;;;;;;4987930;28;20454;-80
2023/08/07 03:22:03;;;;;;;2.10;2.00;;;27.50;53.00;;;;;;4994631;28;20424;-80
2023/08/07 03:24:52;;;;;;;3.30;1.70;;;27.50;53.10;;;;;;4990767;28;20507;-80
2023/08/07 03:27:30;;;;;;;1.70;1.60;;;27.50;53.10;;;;;;4997099;28;20484;-80
2023/08/07 03:30:15;;;;;;;1.70;1.60;;;27.50;53.00;;;;;;4997510;28;20427;-80
2023/08/07 03:32:52;;;;;;;1.63;1.57;;;27.50;53.20;;;;;;4998983;28;20474;-78
2023/08/07 03:35:32;;;;;;;1.60;1.60;;;27.50;53.00;;;;;;4999059;28;20476;-79
2023/08/07 03:38:02;;;;;;;2.00;1.90;;;27.50;53.20;;;;;;5000339;28;20459;-80
2023/08/07 03:40:39;;;;;;;2.20;2.10;;;27.40;53.10;;;;;;4992366;28;20508;-80
2023/08/07 03:43:14;;;;;;;4.33;1.53;;;27.40;53.20;;;;;;4998859;28;20424;-80
2023/08/07 03:45:48;;;;;;;1.93;1.83;;;27.50;53.30;;;;;;4998076;28;20431;-79
2023/08/07 03:48:26;;;;;;;1.93;1.83;;;27.40;53.20;;;;;;4997610;28;20423;-80
2023/08/07 03:51:11;;;;;;;1.60;1.60;;;27.40;53.20;;;;;;4997813;28;20438;-80
2023/08/07 03:53:55;;;;;;;1.70;1.60;;;27.40;53.20;;;;;;4997913;28;20463;-80
2023/08/07 03:56:46;;;;;;;1.57;1.47;;;27.40;53.40;;;;;;4997740;28;20408;-80
2023/08/07 03:59:30;;;;;;;1.67;1.60;;;27.40;53.20;;;;;;4993988;28;20449;-80
2023/08/07 04:02:10;;;;;;;1.80;1.70;;;27.40;53.30;;;;;;4997831;28;20825;-80
2023/08/07 04:05:02;;;;;;;1.90;1.80;;;27.40;53.30;;;;;;4995648;28;20428;-79
2023/08/07 04:07:46;;;;;;;1.83;1.73;;;27.40;53.20;;;;;;4993834;28;20444;-79
2023/08/07 04:10:25;;;;;;;2.20;1.97;;;27.40;53.30;;;;;;4998051;28;20448;-80
2023/08/07 04:12:59;;;;;;;1.23;1.23;;;27.40;53.40;;;;;;4997887;28;20456;-79
2023/08/07 04:15:37;;;;;;;2.00;1.90;;;27.40;53.30;;;;;;4998278;28;20441;-80
2023/08/07 04:18:17;;;;;;;1.83;1.70;;;27.40;53.40;;;;;;4998143;28;20470;-78
2023/08/07 04:21:02;;;;;;;4.93;1.50;;;27.40;53.20;;;;;;4997490;28;20449;-80
2023/08/07 04:23:40;;;;;;;1.90;1.80;;;27.40;53.40;;;;;;4990148;28;20543;-80
2023/08/07 04:26:20;;;;;;;1.80;1.70;;;27.30;53.30;;;;;;4997931;28;20427;-80
2023/08/07 04:28:54;;;;;;;1.70;1.60;;;27.30;53.50;;;;;;4997567;28;20404;-80
2023/08/07 04:31:39;;;;;;;1.30;1.30;;;27.30;53.20;;;;;;4996877;28;20517;-80
2023/08/07 04:34:23;;;;;;;1.80;1.70;;;27.30;53.40;;;;;;4997158;28;20473;-80
2023/08/07 04:37:07;;;;;;;1.83;1.77;;;27.30;53.50;;;;;;4997229;28;20450;-79
2023/08/07 04:39:47;;;;;;;1.90;1.80;;;27.40;53.50;;;;;;4983957;28;20453;-80
2023/08/07 04:42:37;;;;;;;2.20;1.50;;;27.30;53.50;;;;;;4996949;28;20496;-80
2023/08/07 04:45:10;;;;;;;2.40;1.50;;;27.30;53.40;;;;;;4996865;28;20446;-80
2023/08/07 04:47:44;;;;;;;1.77;1.67;;;27.30;53.40;;;;;;4997649;28;20445;-80
2023/08/07 04:50:39;;;;;;;1.80;1.70;;;27.30;53.60;;;;;;4992785;28;20473;-80
2023/08/07 04:53:24;;;;;;;1.50;1.50;;;27.40;53.80;;;;;;4996673;28;20483;-79
2023/08/07 04:56:12;;;;;;;1.67;1.67;;;27.40;53.60;;;;;;4996280;28;20457;-80
2023/08/07 04:59:01;;;;;;;1.90;1.80;;;27.40;53.40;;;;;;4996250;28;20442;-80
2023/08/07 05:01:32;;;;;;;1.70;1.60;;;27.30;53.60;;;;;;4982790;28;20477;-81
2023/08/07 05:04:36;;;;;;;2.87;2.20;;;27.30;53.60;;;;;;4996277;28;20508;-79
2023/08/07 05:07:13;;;;;;;1.63;1.57;;;27.40;53.70;;;;;;4994312;28;20420;-80
2023/08/07 05:09:51;;;;;;;1.50;1.50;;;27.30;53.60;;;;;;4997120;28;20503;-80
2023/08/07 05:13:02;;;;;;;1.90;1.80;;;27.30;53.90;;;;;;4997061;28;20473;-79
2023/08/07 05:15:43;;;;;;;1.90;1.80;;;27.40;53.70;;;;;;4989197;28;20458;-80
2023/08/07 05:18:40;;;;;;;1.90;1.80;;;27.30;53.70;;;;;;4996363;28;20482;-80
2023/08/07 05:21:11;;;;;;;1.73;1.63;;;27.30;53.70;;;;;;4998146;28;20445;-78
2023/08/07 05:23:56;;;;;;;2.23;2.13;;;27.30;53.70;;;;;;4996723;28;20465;-80
2023/08/07 05:26:40;;;;;;;1.87;1.80;;;27.30;53.70;;;;;;5000480;28;20515;-80
2023/08/07 05:29:12;;;;;;;1.70;1.60;;;27.40;53.80;;;;;;5000900;28;20445;-79
2023/08/07 05:31:43;;;;;;;2.60;1.70;;;27.40;53.80;;;;;;4994478;28;20565;-80
2023/08/07 05:34:11;;;;;;;1.80;1.70;;;27.40;53.80;;;;;;5001134;28;20459;-78
2023/08/07 05:36:45;;;;;;;1.90;1.80;;;27.40;53.70;;;;;;5001044;28;20428;-80
2023/08/07 05:39:34;;;;;;;1.90;1.80;;;27.40;53.70;;;;;;5001243;28;20479;-80
2023/08/07 05:42:13;;;;;;;1.83;1.73;;;27.40;53.60;;;;;;5001756;28;20469;-80
2023/08/07 05:44:49;;;;;;;1.70;1.60;;;27.40;53.70;;;;;;5001867;28;20452;-80
2023/08/07 05:47:41;;;;;;;1.80;1.70;;;27.40;53.60;;;;;;5001068;28;20445;-79
2023/08/07 05:50:39;;;;;;;1.67;1.67;;;27.50;53.70;;;;;;4994810;28;20453;-80
2023/08/07 05:53:26;;;;;;;2.00;1.80;;;27.50;53.70;;;;;;5001320;28;20473;-80
2023/08/07 05:56:09;;;;;;;2.10;2.00;;;27.50;53.60;;;;;;5001725;28;20445;-80
2023/08/07 05:58:51;;;;;;;1.90;1.80;;;27.50;53.80;;;;;;4994617;28;20424;-80
2023/08/07 06:01:30;;;;;;;1.90;1.80;;;27.50;53.70;;;;;;5001095;28;20460;-79
2023/08/07 06:04:18;;;;;;;1.90;1.80;;;27.50;53.80;;;;;;4992338;28;20468;-79
2023/08/07 06:07:08;;;;;;;1.90;1.80;;;27.50;53.60;;;;;;4994415;28;20460;-79
2023/08/07 06:09:51;;;;;;;1.80;1.70;;;27.50;53.60;;;;;;4992493;28;20430;-79
2023/08/07 06:12:39;;;;;;;1.87;1.77;;;27.50;53.50;;;;;;4998453;28;20442;-79
2023/08/07 06:15:19;;;;;;;1.57;1.57;;;27.60;53.60;;;;;;4995443;28;20934;-80
2023/08/07 06:17:54;;;;;;;1.77;1.53;;;27.60;53.50;;;;;;4992153;28;20460;-79
2023/08/07 06:20:34;;;;;;;1.97;1.87;;;27.50;53.40;;;;;;4998942;28;20424;-78
2023/08/07 06:26:29;;;;;;;1.80;1.70;;;27.50;53.60;;;;;;4996126;28;20474;-79
2023/08/07 06:29:14;;;;;;;1.83;1.73;;;27.50;53.80;;;;;;5000384;28;20502;-79
2023/08/07 06:32:42;;;;;;;1.90;1.80;;;27.50;53.60;;;;;;4996653;28;20515;-79
2023/08/07 06:35:27;;;;;;;1.83;1.73;;;27.50;53.90;;;;;;4999212;28;20445;-80
2023/08/07 06:38:21;;;;;;;;;;;;;;;;;;;;;
2023/08/07 06:41:29;;;;;;;1.90;1.80;;;27.50;53.80;;;;;;5000228;28;20424;-79
2023/08/07 06:44:49;;;;;;;1.90;1.80;;;27.60;53.80;;;;;;4964968;29;20538;-81
2023/08/07 06:47:51;;;;;;;2.37;2.20;;;27.60;53.80;;;;;;4952830;28;20785;-82
2023/08/07 06:50:58;;;;;;;1.43;1.43;;;27.60;53.60;;;;;;4999317;28;20484;-81
2023/08/07 06:57:11;;;;;;;2.50;1.60;;;27.70;53.80;;;;;;4974586;28;20458;-81
2023/08/07 07:00:18;;;;;;;5.90;2.07;;;27.70;53.60;;;;;;4991155;28;20957;-81
2023/08/07 07:03:19;;;;;;;1.80;1.70;;;27.70;53.80;;;;;;4992922;28;20469;-80
2023/08/07 07:08:53;;;;;;;1.70;1.60;;;27.70;53.60;;;;;;4993192;28;20446;-81
2023/08/07 07:11:32;;;;;;;1.63;1.53;;;27.80;53.50;;;;;;4998393;28;20468;-81
2023/08/07 07:14:19;;;;;;;1.77;1.67;;;27.80;53.50;;;;;;4998509;28;20555;-80
2023/08/07 07:16:47;;;;;;;1.93;1.50;;;27.80;53.50;;;;;;4994995;28;20481;-81
2023/08/07 07:19:45;;;;;;;2.00;1.57;;;27.90;53.60;;;;;;4996780;28;20441;-81
2023/08/07 07:22:28;;;;;;;1.70;1.43;;;27.90;53.50;;;;;;4997560;28;20439;-82
2023/08/07 07:28:39;;;;;;;2.10;1.80;;;28.00;53.50;;;;;;4995164;28;20445;-76
2023/08/07 07:31:13;;;;;;;2.50;1.73;;;28.00;53.20;;;;;;4996906;28;20507;-78
2023/08/07 07:33:49;;;;;;;3.57;1.70;;;28.00;53.30;;;;;;4994381;28;20459;-78
2023/08/07 07:36:21;;;;;;;8.57;1.90;;;28.10;53.20;;;;;;4998832;28;20424;-80
2023/08/07 07:45:49;;;;;;;2.23;2.00;;;28.30;53.40;;;;;;4972076;28;20438;-80
2023/08/07 07:48:25;;;;;;;3.80;1.77;;;28.50;53.50;;;;;;4999772;28;20447;-80
2023/08/07 07:54:28;;;;;;;7.67;1.90;;;28.60;53.30;;;;;;4951003;29;20490;-83
2023/08/07 07:57:13;;;;;;;5.90;1.70;;;28.60;53.30;;;;;;4999873;28;20473;-82
2023/08/07 08:02:57;;;;;;;2.97;1.60;;;28.70;53.40;;;;;;4989543;28;20523;-83
2023/08/07 08:05:36;;;;;;;1.67;1.57;;;28.90;53.10;;;;;;4998336;28;20460;-84
2023/08/07 08:08:11;;;;;;;3.50;1.60;;;29.00;53.10;;;;;;4999452;28;20445;-83
2023/08/07 08:10:43;;;;;;;2.23;2.00;;;29.10;52.90;;;;;;4992621;28;20508;-83
2023/08/07 08:13:14;;;;;;;2.53;1.40;;;29.20;52.80;;;;;;4998962;28;20448;-84
2023/08/07 08:16:08;;;;;;;4.17;1.70;;;29.10;52.50;;;;;;4997738;28;20472;-84
2023/08/07 08:18:48;;;;;;;2.13;1.93;;;29.10;52.50;;;;;;4997998;28;20423;-84
2023/08/07 08:21:17;;;;;;;5.17;1.77;;;29.10;52.60;;;;;;4994270;28;20527;-81
2023/08/07 08:23:46;;;;;;;2.73;1.70;;;29.10;52.40;;;;;;4998402;28;20477;-83
2023/08/07 08:26:18;;;;;;;3.00;1.83;;;29.10;52.40;;;;;;4998101;28;20449;-84
2023/08/07 08:28:47;;;;;;;3.33;2.00;;;29.20;52.50;;;;;;4990484;28;20449;-82
2023/08/07 08:31:14;;;;;;;3.23;1.70;;;29.40;52.90;;;;;;4996899;28;20503;-84
2023/08/07 08:33:42;;;;;;;3.37;1.80;;;29.50;52.00;;;;;;4998607;28;20477;-82
2023/08/07 08:36:11;;;;;;;8.13;1.90;;;29.50;51.90;;;;;;5000789;28;20453;-83
2023/08/07 08:38:39;;;;;;;2.77;1.80;;;29.60;51.60;;;;;;5000144;28;20504;-82
2023/08/07 08:41:06;;;;;;;2.60;1.80;;;29.70;51.40;;;;;;5004826;28;20449;-82
2023/08/07 08:43:36;;;;;;;3.30;2.00;;;29.40;47.10;;;;;;5005189;28;20465;-82
2023/08/07 08:46:05;;;;;;;5.30;1.80;;;29.20;45.30;;;;;;5005716;28;20473;-82
2023/08/07 08:48:39;;;;;;;4.60;1.83;;;29.00;44.40;;;;;;5003922;28;20445;-81
2023/08/07 08:51:08;;;;;;;3.13;1.70;;;28.80;44.00;;;;;;4998272;28;20440;-79
2023/08/07 08:53:38;;;;;;;3.97;1.93;;;28.80;46.10;;;;;;4992914;28;20469;-81
2023/08/07 08:56:06;;;;;;;5.93;2.20;;;28.80;45.60;;;;;;4997067;28;20459;-81
2023/08/07 08:58:34;;;;;;;14.70;1.93;;;28.90;45.70;;;;;;4997856;28;20476;-82
2023/08/07 09:01:07;;;;;;;9.70;1.67;;;29.10;45.90;;;;;;5001015;28;20457;-80
2023/08/07 09:03:35;;;;;;;8.80;2.30;;;29.30;46.00;;;;;;4999280;28;20509;-82
2023/08/07 09:06:06;;;;;;;4.10;1.90;;;29.50;45.70;;;;;;5002873;28;20437;-83
2023/08/07 09:08:34;;;;;;;3.80;2.00;;;29.70;45.80;;;;;;5000829;28;20810;-81
2023/08/07 09:11:03;;;;;;;3.57;1.50;;;29.80;45.60;;;;;;5004386;28;20433;-83
2023/08/07 09:13:31;;;;;;;6.30;1.60;;;30.00;45.90;;;;;;5004858;28;20461;-82
2023/08/07 09:15:59;;;;;;;1.60;1.50;;;30.20;45.70;;;;;;5000347;28;20483;-82
2023/08/07 09:18:29;;;;;;;5.53;1.90;;;30.30;45.60;;;;;;5000927;28;20453;-81
2023/08/07 09:20:58;;;;;;;4.73;2.17;;;30.30;45.50;;;;;;5001057;28;20465;-81
2023/08/07 09:23:26;;;;;;;4.40;1.50;;;30.40;45.60;;;;;;5000163;28;20464;-80
2023/08/07 09:26:00;;;;;;;3.77;1.73;;;30.50;45.60;;;;;;5000005;28;20464;-83
2023/08/07 09:28:29;;;;;;;4.00;1.87;;;30.60;45.50;;;;;;5022475;22;20473;-80
2023/08/07 09:30:56;;;;;;;6.07;2.13;;;30.80;45.40;;;;;;5004686;28;20475;-78
2023/08/07 09:33:30;;;;;;;2.40;1.53;;;30.80;45.10;;;;;;5018920;28;20429;-79
2023/08/07 09:35:58;;;;;;;2.90;1.70;;;30.70;45.00;;;;;;5016550;28;20479;-79
2023/08/07 09:38:29;;;;;;;3.37;1.60;;;30.50;45.30;;;;;;5015733;28;20440;-79
2023/08/07 09:40:58;;;;;;;4.90;1.67;;;30.40;45.60;;;;;;4984689;28;20483;-80
2023/08/07 09:43:26;;;;;;;5.50;1.77;;;30.30;46.10;;;;;;4993520;28;20429;-79
2023/08/07 09:46:00;;;;;;;7.37;1.97;;;30.20;46.40;;;;;;4982539;28;20446;-80
2023/08/07 09:48:33;;;;;;;3.00;1.47;;;30.30;46.80;;;;;;5001230;28;20467;-80
2023/08/07 09:51:02;;;;;;;2.40;1.60;;;30.40;46.60;;;;;;4984257;28;20446;-79
2023/08/07 09:53:31;;;;;;;2.30;1.20;;;30.60;46.30;;;;;;4982425;28;20485;-79
2023/08/07 09:55:59;;;;;;;1.77;1.60;;;30.70;46.50;;;;;;5001634;28;20539;-79
2023/08/07 09:58:27;;;;;;;1.67;1.57;;;30.80;46.30;;;;;;4984861;28;20434;-79
2023/08/07 10:00:59;;;;;;;3.80;2.00;;;30.90;46.20;;;;;;4995555;28;20472;-81
2023/08/07 10:03:27;;;;;;;3.07;1.43;;;31.00;46.10;;;;;;4984038;28;20453;-80
2023/08/07 10:05:56;;;;;;;3.13;1.70;;;30.90;46.00;;;;;;4993661;28;20439;-80
2023/08/07 10:08:25;;;;;;;2.77;1.50;;;30.80;45.90;;;;;;4997069;28;20461;-80
2023/08/07 10:10:53;;;;;;;4.93;1.80;;;30.60;46.10;;;;;;4983732;28;20541;-80
2023/08/07 10:13:21;;;;;;;1.67;1.50;;;30.50;46.40;;;;;;4986889;28;20441;-78
2023/08/07 10:16:05;;;;;;;3.20;1.80;;;30.50;46.80;;;;;;4993387;28;20474;-81
2023/08/07 10:18:33;;;;;;;4.03;1.80;;;30.50;46.80;;;;;;4993443;28;20489;-80
2023/08/07 10:21:04;;;;;;;4.80;1.67;;;30.50;46.60;;;;;;4991085;28;20449;-80
2023/08/07 10:23:32;;;;;;;5.20;1.70;;;30.50;46.70;;;;;;4984140;28;20442;-80
2023/08/07 10:26:00;;;;;;;3.53;1.70;;;30.40;47.30;;;;;;4994798;28;20448;-79
2023/08/07 10:28:28;;;;;;;1.70;1.60;;;30.40;46.70;;;;;;4992330;28;20516;-80
2023/08/07 10:30:56;;;;;;;5.50;1.50;;;30.40;46.70;;;;;;5001907;28;20437;-80
2023/08/07 10:33:24;;;;;;;7.30;1.73;;;30.40;46.70;;;;;;4998051;28;20433;-81
2023/08/07 10:35:53;;;;;;;3.53;1.80;;;30.50;46.60;;;;;;4999813;28;20468;-78
2023/08/07 10:38:24;;;;;;;2.00;1.47;;;30.60;46.40;;;;;;4991849;28;20485;-81
2023/08/07 10:41:01;;;;;;;2.57;1.80;;;30.70;46.10;;;;;;5000539;28;20433;-80
2023/08/07 10:43:30;;;;;;;2.70;1.50;;;30.80;46.20;;;;;;4992531;28;20449;-79
2023/08/07 10:46:04;;;;;;;2.80;2.20;;;30.90;46.10;;;;;;4989698;28;20437;-79
2023/08/07 10:48:45;;;;;;;1.63;1.30;;;31.00;45.90;;;;;;4997550;28;20457;-79
2023/08/07 10:51:16;;;;;;;5.33;1.40;;;31.00;46.00;;;;;;4997679;28;20425;-77
2023/08/07 10:53:46;;;;;;;1.67;1.57;;;31.00;45.70;;;;;;4995774;28;20516;-79
2023/08/07 10:56:16;;;;;;;5.60;1.37;;;31.20;45.80;;;;;;4996263;28;20473;-78
2023/08/07 10:58:48;;;;;;;5.57;1.63;;;31.20;45.30;;;;;;4994849;28;20465;-79
2023/08/07 11:01:20;;;;;;;7.67;1.90;;;31.20;45.60;;;;;;4990642;28;20449;-79
2023/08/07 11:03:50;;;;;;;2.03;1.90;;;31.10;45.00;;;;;;4992466;28;20437;-78
2023/08/07 11:06:18;;;;;;;6.37;1.63;;;30.90;45.30;;;;;;5003987;28;20445;-78
2023/08/07 11:08:47;;;;;;;2.43;1.40;;;30.90;45.40;;;;;;5001484;28;20455;-79
2023/08/07 11:11:15;;;;;;;3.37;2.17;;;30.90;46.00;;;;;;4999663;28;20445;-79
2023/08/07 11:13:43;;;;;;;4.17;1.93;;;31.00;45.40;;;;;;5000006;28;20438;-79
2023/08/07 11:16:11;;;;;;;2.30;2.10;;;31.00;45.60;;;;;;5003290;28;20482;-79
2023/08/07 11:18:41;;;;;;;3.23;2.40;;;31.00;45.60;;;;;;5001686;28;20476;-79
2023/08/07 11:21:10;;;;;;;4.43;2.40;;;31.20;45.30;;;;;;5004568;28;20437;-79
2023/08/07 11:23:38;;;;;;;2.70;2.50;;;31.20;45.10;;;;;;4998240;28;20441;-80
2023/08/07 11:26:07;;;;;;;2.50;2.27;;;31.30;45.00;;;;;;4997084;28;20446;-80
2023/08/07 11:28:35;;;;;;;3.27;2.57;;;31.20;44.80;;;;;;4988926;28;20470;-80
2023/08/07 11:31:03;;;;;;;2.53;2.27;;;31.20;44.90;;;;;;4997230;28;20437;-80
2023/08/07 11:33:31;;;;;;;2.80;2.00;;;31.00;45.20;;;;;;4996717;28;20484;-80
2023/08/07 11:35:59;;;;;;;2.70;2.50;;;31.00;45.30;;;;;;4991238;28;20473;-81
2023/08/07 11:38:30;;;;;;;3.90;2.60;;;31.00;45.20;;;;;;4997090;28;20476;-80
2023/08/07 11:41:00;;;;;;;3.43;2.50;;;31.20;45.30;;;;;;4996426;28;20477;-80
2023/08/07 11:43:30;;;;;;;2.20;2.00;;;31.30;45.40;;;;;;4995307;28;20445;-81
2023/08/07 11:45:59;;;;;;;2.73;2.20;;;31.50;44.90;;;;;;4997670;28;20440;-80
2023/08/07 11:48:27;;;;;;;3.03;2.20;;;31.50;44.40;;;;;;4999018;28;20442;-80
2023/08/07 11:50:55;;;;;;;2.17;1.97;;;31.50;44.30;;;;;;4993091;28;20442;-80
2023/08/07 11:53:23;;;;;;;2.63;2.10;;;31.30;44.50;;;;;;4997244;28;20468;-79
2023/08/07 11:55:56;;;;;;;2.10;1.70;;;31.20;44.40;;;;;;4990852;28;20556;-79
2023/08/07 11:58:25;;;;;;;2.17;2.00;;;31.10;44.70;;;;;;4995736;28;20457;-80
2023/08/07 12:00:54;;;;;;;2.83;1.90;;;31.20;44.70;;;;;;4998481;28;20445;-80
2023/08/07 12:03:27;;;;;;;2.87;2.43;;;31.30;44.50;;;;;;4997390;28;20440;-80
2023/08/07 12:05:56;;;;;;;3.00;2.27;;;31.20;44.30;;;;;;4990310;28;20446;-79
2023/08/07 12:08:24;;;;;;;3.73;2.13;;;31.10;44.40;;;;;;4991693;28;20456;-79
2023/08/07 12:10:52;;;;;;;3.87;2.23;;;31.00;44.70;;;;;;4988677;28;20468;-80
2023/08/07 12:13:25;;;;;;;6.00;2.50;;;30.90;44.70;;;;;;4995821;28;20520;-80
2023/08/07 12:15:54;;;;;;;2.43;2.00;;;31.00;45.10;;;;;;4997218;28;20497;-81
2023/08/07 12:18:23;;;;;;;3.37;1.97;;;30.90;45.00;;;;;;4990086;28;20966;-77
2023/08/07 12:20:51;;;;;;;2.67;2.00;;;31.00;45.10;;;;;;4994488;28;20461;-78
2023/08/07 12:23:21;;;;;;;2.53;1.83;;;30.90;45.20;;;;;;4991753;28;20503;-78
2023/08/07 12:25:49;;;;;;;1.80;1.60;;;30.90;45.40;;;;;;5003935;28;20453;-77
2023/08/07 12:28:18;;;;;;;4.27;2.10;;;30.80;45.50;;;;;;4992473;28;20453;-79
2023/08/07 12:30:46;;;;;;;1.80;1.70;;;30.80;45.80;;;;;;4993288;28;20903;-79
2023/08/07 12:33:15;;;;;;;2.53;1.90;;;31.00;46.10;;;;;;4992908;28;20453;-78
2023/08/07 12:35:43;;;;;;;8.43;2.37;;;31.10;45.60;;;;;;4992255;28;20444;-78
2023/08/07 12:38:13;;;;;;;6.40;2.17;;;31.40;45.30;;;;;;4989922;28;20917;-79
2023/08/07 12:40:41;;;;;;;14.10;2.43;;;31.50;45.20;;;;;;4988430;28;20457;-79
2023/08/07 12:43:11;;;;;;;5.43;2.30;;;31.80;44.60;;;;;;4990250;28;20445;-79
2023/08/07 12:45:39;;;;;;;5.23;2.17;;;32.00;43.70;;;;;;4991338;28;20441;-78
2023/08/07 12:48:10;;;;;;;9.20;1.80;;;32.00;43.50;;;;;;4987321;28;20443;-78
2023/08/07 12:50:39;;;;;;;4.80;1.87;;;32.20;43.20;;;;;;4987532;28;20471;-78
2023/08/07 12:53:07;;;;;;;8.27;1.67;;;32.10;43.00;;;;;;4984483;28;20453;-79
2023/08/07 12:55:35;;;;;;;5.60;1.80;;;32.10;43.20;;;;;;4986617;28;20556;-78
2023/08/07 12:58:03;;;;;;;5.73;1.53;;;32.30;43.90;;;;;;4983585;28;20478;-79
2023/08/07 13:00:31;;;;;;;6.43;1.47;;;32.70;43.40;;;;;;4982696;28;20473;-79
2023/08/07 13:02:59;;;;;;;3.97;1.67;;;33.00;42.20;;;;;;4987280;28;20464;-79
2023/08/07 13:05:29;;;;;;;2.63;1.77;;;33.00;42.00;;;;;;4989572;28;20445;-79
2023/08/07 13:07:58;;;;;;;2.60;1.40;;;32.90;41.60;;;;;;4992009;28;20476;-79
2023/08/07 13:10:31;;;;;;;2.70;1.30;;;32.70;42.10;;;;;;4992080;28;20531;-79
2023/08/07 13:13:01;;;;;;;3.13;1.20;;;32.40;42.60;;;;;;4992758;28;20514;-79
2023/08/07 13:15:30;;;;;;;3.13;1.60;;;32.10;43.00;;;;;;4992716;28;20503;-79
2023/08/07 13:17:57;;;;;;;1.27;1.17;;;31.90;43.50;;;;;;4991493;28;20485;-79
2023/08/07 13:20:26;;;;;;;5.63;1.40;;;31.60;43.80;;;;;;4989346;28;20465;-78
2023/08/07 13:22:54;;;;;;;1.40;1.30;;;31.40;44.20;;;;;;4992917;28;20548;-79
2023/08/07 13:25:23;;;;;;;3.93;1.67;;;31.30;44.70;;;;;;4993341;28;20536;-77
2023/08/07 13:27:51;;;;;;;2.80;1.50;;;31.20;44.90;;;;;;4990958;28;20469;-78
2023/08/07 13:30:19;;;;;;;3.20;1.80;;;31.10;45.10;;;;;;4978186;28;20545;-78
2023/08/07 13:32:46;;;;;;;1.77;1.67;;;31.10;45.30;;;;;;4983952;28;20497;-79
2023/08/07 13:35:14;;;;;;;7.13;1.73;;;31.10;45.30;;;;;;4981707;28;20452;-78
2023/08/07 13:37:42;;;;;;;5.47;1.93;;;31.10;45.70;;;;;;4986728;28;20556;-78
2023/08/07 13:40:13;;;;;;;2.70;1.43;;;31.30;45.60;;;;;;4984810;28;20569;-78
2023/08/07 13:42:43;;;;;;;3.27;1.87;;;31.60;44.30;;;;;;4983942;28;20464;-80
2023/08/07 13:45:11;;;;;;;6.17;1.53;;;31.40;44.50;;;;;;4993164;28;20461;-81
2023/08/07 13:47:39;;;;;;;3.43;1.60;;;31.30;44.70;;;;;;4994475;28;20454;-81
2023/08/07 13:50:12;;;;;;;3.87;1.63;;;31.10;44.90;;;;;;4990482;28;20478;-82
2023/08/07 13:52:40;;;;;;;3.40;1.70;;;31.00;45.30;;;;;;4988867;28;20456;-80
2023/08/07 13:55:09;;;;;;;4.97;1.70;;;31.20;46.30;;;;;;4983436;28;20452;-80
2023/08/07 13:57:37;;;;;;;5.23;1.80;;;31.50;44.90;;;;;;4988609;28;20477;-79
2023/08/07 14:00:08;;;;;;;2.60;1.50;;;31.30;44.80;;;;;;4997367;28;20535;-79
2023/08/07 14:02:36;;;;;;;4.80;1.40;;;31.20;45.10;;;;;;4995021;28;20445;-80
2023/08/07 14:05:05;;;;;;;4.40;1.50;;;31.00;45.30;;;;;;4992206;28;20480;-81